createdAt,value
2023-02-19T00:14:03.386Z,3.30
2023-02-19T00:35:49.035Z,3.00
2023-02-19T00:57:35.030Z,3.50
2023-02-19T01:19:21.267Z,3.50
2023-02-19T01:41:09.963Z,2.90
2023-02-19T02:02:59.375Z,4.00
2023-02-19T02:25:27.520Z,4.60
2023-02-19T02:47:33.468Z,5.20
2023-02-19T03:09:30.461Z,4.70
2023-02-19T03:31:20.784Z,5.30
2023-02-19T03:53:13.382Z,6.00
2023-02-19T04:15:05.086Z,6.70
2023-02-19T04:36:51.016Z,5.90
2023-02-19T04:58:36.980Z,6.30
2023-02-19T05:20:23.458Z,9.30
2023-02-19T05:42:09.938Z,7.40
2023-02-19T06:03:57.625Z,5.30
2023-02-19T06:25:43.915Z,5.10
2023-02-19T06:47:31.585Z,3.90
2023-02-19T07:09:17.435Z,2.40
2023-02-19T07:31:05.491Z,2.60
2023-02-19T07:52:51.183Z,2.20
2023-02-19T08:14:36.984Z,1.60
2023-02-19T08:36:22.978Z,1.70
2023-02-19T08:58:08.627Z,1.90
2023-02-19T09:19:54.391Z,2.20
2023-02-19T09:41:45.621Z,2.10
2023-02-19T10:03:35.927Z,2.30
2023-02-19T10:25:21.859Z,2.30
2023-02-19T10:47:08.383Z,2.20
2023-02-19T11:09:00.084Z,2.60
2023-02-19T11:30:47.055Z,2.10
2023-02-19T11:52:42.205Z,2.80
2023-02-19T12:15:05.374Z,1.90
2023-02-19T12:37:05.214Z,2.50
2023-02-19T12:58:54.442Z,2.20
2023-02-19T13:20:43.328Z,3.10
2023-02-19T13:42:33.235Z,2.30
2023-02-19T14:04:24.008Z,2.00
2023-02-19T14:26:10.095Z,2.20
2023-02-19T14:47:58.475Z,2.50
2023-02-19T15:09:46.695Z,2.00
2023-02-19T15:31:32.599Z,2.20
2023-02-19T15:53:22.859Z,2.80
2023-02-19T16:15:20.990Z,2.50
2023-02-19T16:37:34.991Z,2.80
2023-02-19T16:59:20.957Z,2.70
2023-02-19T17:21:15.555Z,4.40
2023-02-19T17:43:01.479Z,3.80
2023-02-19T18:04:47.223Z,4.20
2023-02-19T18:26:33.788Z,4.60
2023-02-19T18:48:19.660Z,4.90
2023-02-19T19:10:05.860Z,4.60
2023-02-19T19:31:52.298Z,7.10
2023-02-19T19:53:38.159Z,5.40
2023-02-19T20:15:25.925Z,6.30
2023-02-19T20:37:11.700Z,5.90
2023-02-19T20:58:57.331Z,6.60
2023-02-19T21:42:27.105Z,5.80
2023-02-19T22:25:58.136Z,4.90
2023-02-19T22:47:44.682Z,4.90
2023-02-19T23:09:31.305Z,5.60
2023-02-19T23:31:17.799Z,4.60
2023-02-19T23:53:03.639Z,4.60
